createdAt,value
2023-05-20T00:00:56.805Z,12.51
2023-05-20T00:03:24.495Z,12.45
2023-05-20T00:05:52.393Z,12.43
2023-05-20T00:08:20.237Z,12.46
2023-05-20T00:10:47.912Z,12.43
2023-05-20T00:13:15.568Z,12.42
2023-05-20T00:15:43.590Z,12.42
2023-05-20T00:18:11.214Z,12.38
2023-05-20T00:20:38.977Z,12.36
2023-05-20T00:23:06.592Z,12.34
2023-05-20T00:25:34.417Z,12.40
2023-05-20T00:28:02.196Z,12.34
2023-05-20T00:30:29.830Z,12.36
2023-05-20T00:32:57.710Z,12.28
2023-05-20T00:35:25.516Z,12.29
2023-05-20T00:37:53.104Z,12.42
2023-05-20T00:40:22.194Z,12.46
2023-05-20T00:42:49.746Z,12.38
2023-05-20T00:45:18.254Z,12.37
2023-05-20T00:47:46.220Z,12.32
2023-05-20T00:50:14.067Z,12.34
2023-05-20T00:52:45.399Z,12.33
2023-05-20T00:55:13.110Z,12.32
2023-05-20T00:57:41.340Z,12.33
2023-05-20T01:00:10.874Z,12.37
2023-05-20T01:02:39.072Z,12.42
2023-05-20T01:05:07.314Z,12.37
2023-05-20T01:07:35.118Z,12.36
2023-05-20T01:10:03.142Z,12.38
2023-05-20T01:12:39.716Z,12.54
2023-05-20T01:15:13.094Z,12.52
2023-05-20T01:17:51.810Z,12.51
2023-05-20T01:20:21.414Z,12.45
2023-05-20T01:22:57.358Z,12.44
2023-05-20T01:25:25.502Z,12.50
2023-05-20T01:27:55.325Z,12.54
2023-05-20T01:30:29.655Z,12.61
2023-05-20T01:33:02.962Z,12.72
2023-05-20T01:35:32.241Z,12.71
2023-05-20T01:38:01.352Z,12.77
2023-05-20T01:40:30.498Z,12.93
2023-05-20T01:42:59.585Z,12.96
2023-05-20T01:45:27.161Z,12.97
2023-05-20T01:47:54.958Z,13.05
2023-05-20T01:50:22.788Z,13.12
2023-05-20T01:52:50.479Z,13.28
2023-05-20T01:55:18.381Z,13.39
2023-05-20T01:57:46.092Z,13.47
2023-05-20T02:00:14.060Z,13.49
2023-05-20T02:02:42.190Z,13.59
2023-05-20T02:05:12.542Z,13.62
2023-05-20T02:07:42.698Z,13.68
2023-05-20T02:10:11.017Z,13.73
2023-05-20T02:12:39.067Z,13.82
2023-05-20T02:15:08.494Z,13.90
2023-05-20T02:17:37.808Z,13.99
2023-05-20T02:20:25.383Z,14.10
2023-05-20T02:22:53.057Z,14.16
2023-05-20T02:25:20.712Z,14.29
2023-05-20T02:27:48.849Z,14.35
2023-05-20T02:30:17.572Z,14.45
2023-05-20T02:32:45.454Z,14.54
2023-05-20T02:35:13.189Z,14.50
2023-05-20T02:37:40.999Z,14.65
2023-05-20T02:40:09.602Z,14.75
2023-05-20T02:42:39.028Z,14.89
2023-05-20T02:45:08.750Z,15.05
2023-05-20T02:47:36.497Z,15.20
2023-05-20T02:50:07.389Z,15.37
2023-05-20T02:52:35.119Z,15.65
2023-05-20T02:55:04.176Z,16.00
2023-05-20T02:57:34.221Z,16.89
2023-05-20T03:00:02.098Z,18.10
2023-05-20T03:02:33.346Z,19.31
2023-05-20T03:05:02.841Z,20.35
2023-05-20T03:07:36.676Z,21.50
2023-05-20T03:10:08.307Z,22.28
2023-05-20T03:12:36.399Z,23.17
2023-05-20T03:15:04.153Z,24.18
2023-05-20T03:17:33.799Z,25.44
2023-05-20T03:20:02.269Z,26.32
2023-05-20T03:22:33.664Z,26.83
2023-05-20T03:25:02.700Z,27.30
2023-05-20T03:27:37.139Z,27.71
2023-05-20T03:30:05.539Z,27.99
2023-05-20T03:32:34.650Z,28.49
2023-05-20T03:35:02.611Z,29.16
2023-05-20T03:37:32.615Z,29.49
2023-05-20T03:40:00.625Z,29.85
2023-05-20T03:42:28.234Z,30.47
2023-05-20T03:44:56.551Z,30.47
2023-05-20T03:47:27.770Z,31.03
2023-05-20T03:49:56.016Z,31.63
2023-05-20T03:52:23.792Z,32.05
2023-05-20T03:54:51.742Z,32.42
2023-05-20T03:57:20.082Z,32.66
2023-05-20T03:59:47.999Z,32.89
2023-05-20T04:02:16.064Z,32.96
2023-05-20T04:04:44.566Z,33.17
2023-05-20T04:07:12.385Z,33.47
2023-05-20T04:09:40.726Z,33.76
2023-05-20T04:12:08.351Z,33.92
2023-05-20T04:14:36.116Z,34.05
2023-05-20T04:17:05.092Z,34.42
2023-05-20T04:19:35.136Z,34.90
2023-05-20T04:22:02.998Z,35.46
2023-05-20T04:24:31.701Z,35.57
2023-05-20T04:26:59.354Z,35.79
2023-05-20T04:29:30.400Z,35.95
2023-05-20T04:31:59.032Z,36.13
2023-05-20T04:34:30.175Z,36.15
2023-05-20T04:36:58.248Z,36.13
2023-05-20T04:39:27.482Z,36.18
2023-05-20T04:41:55.457Z,36.06
2023-05-20T04:44:25.006Z,35.90
2023-05-20T04:46:52.979Z,35.43
2023-05-20T04:49:20.759Z,35.64
2023-05-20T04:51:50.307Z,35.90
2023-05-20T04:54:20.625Z,36.21
2023-05-20T04:56:48.428Z,36.26
2023-05-20T04:59:16.251Z,36.23
2023-05-20T05:01:43.896Z,36.22
2023-05-20T05:04:11.951Z,36.14
2023-05-20T05:06:39.811Z,36.19
2023-05-20T05:09:08.475Z,36.52
2023-05-20T05:11:39.538Z,36.91
2023-05-20T05:14:07.319Z,37.46
2023-05-20T05:16:35.800Z,37.56
2023-05-20T05:19:03.635Z,37.66
2023-05-20T05:21:34.870Z,37.85
2023-05-20T05:24:02.570Z,38.04
2023-05-20T05:26:30.911Z,37.89
2023-05-20T05:28:58.753Z,38.16
2023-05-20T05:31:26.553Z,38.34
2023-05-20T05:33:54.616Z,38.61
2023-05-20T05:36:24.490Z,38.94
2023-05-20T05:38:52.579Z,39.07
2023-05-20T05:41:20.521Z,39.27
2023-05-20T05:43:48.318Z,38.94
2023-05-20T05:46:16.160Z,39.04
2023-05-20T05:48:49.098Z,39.44
2023-05-20T05:51:18.294Z,39.57
2023-05-20T05:53:47.640Z,39.75
2023-05-20T05:56:15.363Z,39.29
2023-05-20T05:58:43.367Z,38.94
2023-05-20T06:01:11.936Z,38.84
2023-05-20T06:03:39.655Z,39.13
2023-05-20T06:06:07.457Z,39.25
2023-05-20T06:08:35.953Z,39.10
2023-05-20T06:11:03.710Z,39.18
2023-05-20T06:13:31.604Z,39.15
2023-05-20T06:15:59.292Z,39.50
2023-05-20T06:18:27.327Z,39.81
2023-05-20T06:20:58.837Z,39.72
2023-05-20T06:23:27.328Z,39.82
2023-05-20T06:26:06.393Z,39.63
2023-05-20T06:28:34.949Z,39.37
2023-05-20T06:31:03.485Z,39.13
2023-05-20T06:33:34.325Z,38.99
2023-05-20T06:36:07.009Z,38.66
2023-05-20T06:38:34.643Z,38.73
2023-05-20T06:41:02.705Z,38.98
2023-05-20T06:43:31.350Z,39.24
2023-05-20T06:46:31.312Z,39.46
2023-05-20T06:49:06.286Z,39.59
2023-05-20T06:51:33.931Z,39.51
2023-05-20T06:54:02.176Z,39.73
2023-05-20T06:56:31.667Z,39.80
2023-05-20T06:59:00.032Z,40.12
2023-05-20T07:01:28.438Z,40.20
2023-05-20T07:03:57.479Z,39.58
2023-05-20T07:06:25.725Z,39.15
2023-05-20T07:08:54.410Z,39.09
2023-05-20T07:11:22.999Z,38.36
2023-05-20T07:13:50.655Z,38.07
2023-05-20T07:16:19.245Z,38.13
2023-05-20T07:18:53.450Z,37.92
2023-05-20T07:21:21.596Z,37.78
2023-05-20T07:24:12.268Z,37.52
2023-05-20T07:26:40.217Z,37.05
2023-05-20T07:29:08.218Z,36.80
2023-05-20T07:31:37.717Z,36.06
2023-05-20T07:34:05.449Z,35.46
2023-05-20T07:36:33.109Z,34.77
2023-05-20T07:39:08.407Z,34.19
2023-05-20T07:41:40.555Z,34.09
2023-05-20T07:44:11.619Z,34.08
2023-05-20T07:46:42.842Z,33.24
2023-05-20T07:49:12.032Z,32.77
2023-05-20T07:51:40.547Z,32.24
2023-05-20T07:54:08.731Z,32.18
2023-05-20T07:56:37.849Z,31.94
2023-05-20T07:59:07.121Z,31.81
2023-05-20T08:01:42.536Z,31.92
2023-05-20T08:04:11.912Z,31.86
2023-05-20T08:06:40.119Z,31.97
2023-05-20T08:09:12.026Z,31.59
2023-05-20T08:11:47.326Z,31.07
2023-05-20T08:14:15.596Z,30.89
2023-05-20T08:16:45.351Z,30.79
2023-05-20T08:19:13.085Z,30.21
2023-05-20T08:21:40.715Z,29.49
2023-05-20T08:24:08.333Z,29.93
2023-05-20T08:26:37.388Z,30.02
2023-05-20T08:29:06.466Z,29.31
2023-05-20T08:31:34.673Z,29.35
2023-05-20T08:34:03.290Z,29.18
2023-05-20T08:36:31.047Z,29.65
2023-05-20T08:38:58.629Z,29.92
2023-05-20T08:41:26.708Z,29.79
2023-05-20T08:43:55.365Z,29.69
2023-05-20T08:46:24.010Z,29.68
2023-05-20T08:48:52.056Z,29.44
2023-05-20T08:51:23.746Z,28.49
2023-05-20T08:53:52.214Z,28.30
2023-05-20T08:56:20.316Z,28.19
2023-05-20T08:58:48.250Z,27.95
2023-05-20T09:01:16.008Z,28.03
2023-05-20T09:03:43.779Z,28.05
2023-05-20T09:06:11.442Z,28.24
2023-05-20T09:08:39.837Z,27.38
2023-05-20T09:11:10.569Z,27.27
2023-05-20T09:13:38.222Z,26.75
2023-05-20T09:16:06.490Z,26.97
2023-05-20T09:18:34.133Z,26.73
2023-05-20T09:21:09.228Z,27.26
2023-05-20T09:23:39.944Z,27.32
2023-05-20T09:26:07.973Z,26.44
2023-05-20T09:28:38.577Z,26.26
2023-05-20T09:31:07.025Z,26.08
2023-05-20T09:33:36.022Z,25.93
2023-05-20T09:36:10.932Z,25.97
2023-05-20T09:38:40.464Z,25.91
2023-05-20T09:41:10.866Z,25.92
2023-05-20T09:43:40.738Z,25.93
2023-05-20T09:46:09.146Z,25.98
2023-05-20T09:48:37.942Z,25.98
2023-05-20T09:51:07.234Z,26.09
2023-05-20T09:53:35.034Z,26.17
2023-05-20T09:56:02.689Z,26.13
2023-05-20T09:58:30.993Z,26.10
2023-05-20T10:00:58.712Z,26.09
2023-05-20T10:03:28.713Z,25.94
2023-05-20T10:06:02.334Z,25.70
2023-05-20T10:08:29.667Z,26.26
2023-05-20T10:11:07.051Z,25.77
2023-05-20T10:14:12.988Z,26.06
2023-05-20T10:16:58.931Z,25.89
2023-05-20T10:19:36.503Z,25.79
2023-05-20T10:22:12.259Z,25.69
2023-05-20T10:24:41.755Z,25.54
2023-05-20T10:27:17.422Z,25.61
2023-05-20T10:29:53.450Z,25.71
2023-05-20T10:32:34.578Z,25.87
2023-05-20T10:35:09.467Z,25.70
2023-05-20T10:37:46.271Z,25.84
2023-05-20T10:40:16.140Z,25.62
2023-05-20T10:42:44.021Z,25.29
2023-05-20T10:45:12.726Z,24.93
2023-05-20T10:47:58.331Z,24.94
2023-05-20T10:50:41.004Z,25.00
2023-05-20T10:53:22.003Z,24.95
2023-05-20T10:56:00.345Z,24.64
2023-05-20T10:58:27.955Z,24.60
2023-05-20T11:00:56.506Z,24.67
2023-05-20T11:03:25.722Z,24.68
2023-05-20T11:05:53.440Z,24.55
2023-05-20T11:08:29.092Z,24.47
2023-05-20T11:10:58.288Z,24.44
2023-05-20T11:13:27.267Z,24.51
2023-05-20T11:15:55.810Z,24.48
2023-05-20T11:18:23.547Z,24.25
2023-05-20T11:20:51.468Z,24.37
2023-05-20T11:23:19.494Z,24.38
2023-05-20T11:25:47.098Z,24.29
2023-05-20T11:28:14.964Z,24.19
2023-05-20T11:30:43.710Z,24.34
2023-05-20T11:33:16.156Z,24.33
2023-05-20T11:35:47.970Z,24.37
2023-05-20T11:38:16.372Z,24.37
2023-05-20T11:40:50.954Z,24.17
2023-05-20T11:43:20.426Z,24.04
2023-05-20T11:45:54.327Z,24.11
2023-05-20T11:48:22.279Z,23.98
2023-05-20T11:50:49.916Z,23.98
2023-05-20T11:53:19.168Z,24.02
2023-05-20T11:55:54.598Z,24.17
2023-05-20T11:58:25.784Z,24.17
2023-05-20T12:00:59.555Z,24.11
2023-05-20T12:03:33.486Z,24.08
2023-05-20T12:06:04.892Z,24.19
2023-05-20T12:08:33.029Z,24.07
2023-05-20T12:11:00.736Z,23.89
2023-05-20T12:13:28.498Z,23.84
2023-05-20T12:15:56.263Z,23.67
2023-05-20T12:18:24.113Z,23.59
2023-05-20T12:20:51.877Z,23.61
2023-05-20T12:23:19.580Z,23.66
2023-05-20T12:25:50.168Z,23.70
2023-05-20T12:28:18.086Z,23.62
2023-05-20T12:30:45.677Z,23.50
2023-05-20T12:33:13.257Z,23.46
2023-05-20T12:35:42.601Z,23.42
2023-05-20T12:38:10.850Z,23.37
2023-05-20T12:40:38.763Z,23.34
2023-05-20T12:43:07.018Z,23.22
2023-05-20T12:45:34.752Z,23.16
2023-05-20T12:48:02.621Z,22.98
2023-05-20T12:50:30.418Z,22.87
2023-05-20T12:52:58.070Z,23.11
2023-05-20T12:55:25.824Z,23.14
2023-05-20T12:57:56.753Z,23.20
2023-05-20T13:00:24.517Z,23.13
2023-05-20T13:02:53.199Z,23.23
2023-05-20T13:05:20.979Z,23.28
2023-05-20T13:07:49.420Z,23.34
2023-05-20T13:10:18.281Z,23.29
2023-05-20T13:12:47.335Z,23.10
2023-05-20T13:15:15.250Z,23.05
2023-05-20T13:17:43.293Z,23.13
2023-05-20T13:20:12.246Z,22.98
2023-05-20T13:22:39.894Z,22.76
2023-05-20T13:25:08.426Z,22.89
2023-05-20T13:27:36.180Z,22.86
2023-05-20T13:30:04.579Z,22.82
2023-05-20T13:32:33.254Z,22.76
2023-05-20T13:35:01.254Z,22.82
2023-05-20T13:37:30.381Z,22.89
2023-05-20T13:39:57.937Z,22.96
2023-05-20T13:42:25.776Z,23.01
2023-05-20T13:44:53.383Z,23.07
2023-05-20T13:47:21.275Z,23.06
2023-05-20T13:49:49.325Z,23.13
2023-05-20T13:52:16.989Z,23.11
2023-05-20T13:54:47.045Z,23.09
2023-05-20T13:57:15.446Z,23.10
2023-05-20T13:59:42.953Z,23.09
2023-05-20T14:02:11.301Z,23.14
2023-05-20T14:04:40.320Z,23.14
2023-05-20T14:07:09.891Z,23.14
2023-05-20T14:09:37.776Z,23.08
2023-05-20T14:12:06.580Z,23.04
2023-05-20T14:14:34.304Z,23.01
2023-05-20T14:17:01.833Z,22.95
2023-05-20T14:19:30.386Z,22.92
2023-05-20T14:22:01.422Z,22.86
2023-05-20T14:24:29.811Z,22.82
2023-05-20T14:26:57.466Z,22.81
2023-05-20T14:29:25.371Z,22.77
2023-05-20T14:31:53.034Z,22.78
2023-05-20T14:34:21.634Z,22.87
2023-05-20T14:36:49.334Z,22.85
2023-05-20T14:39:17.459Z,22.78
2023-05-20T14:41:45.114Z,22.76
2023-05-20T14:44:12.732Z,22.75
2023-05-20T14:46:40.564Z,22.70
2023-05-20T14:49:08.213Z,22.65
2023-05-20T14:51:35.782Z,22.62
2023-05-20T14:54:03.387Z,22.59
2023-05-20T14:56:31.620Z,22.56
2023-05-20T14:58:59.311Z,22.53
2023-05-20T15:01:26.958Z,22.56
2023-05-20T15:03:54.626Z,22.50
2023-05-20T15:06:22.216Z,22.51
2023-05-20T15:08:49.849Z,22.52
2023-05-20T15:11:17.416Z,22.43
2023-05-20T15:13:46.772Z,22.40
2023-05-20T15:16:14.499Z,22.38
2023-05-20T15:18:42.332Z,22.31
2023-05-20T15:21:10.113Z,22.30
2023-05-20T15:23:37.731Z,22.22
2023-05-20T15:26:05.439Z,22.18
2023-05-20T15:28:33.133Z,22.18
2023-05-20T15:31:00.918Z,22.15
2023-05-20T15:33:28.620Z,22.08
2023-05-20T15:35:56.726Z,22.01
2023-05-20T15:38:24.462Z,21.96
2023-05-20T15:40:51.997Z,21.92
2023-05-20T15:43:20.251Z,21.95
2023-05-20T15:45:48.654Z,21.87
2023-05-20T15:48:16.658Z,21.86
2023-05-20T15:50:44.454Z,21.81
2023-05-20T15:53:12.100Z,21.76
2023-05-20T15:55:39.800Z,21.56
2023-05-20T15:58:07.447Z,21.63
2023-05-20T16:00:35.519Z,21.61
2023-05-20T16:03:03.676Z,21.60
2023-05-20T16:05:31.569Z,21.55
2023-05-20T16:07:59.364Z,21.49
2023-05-20T16:10:33.041Z,21.46
2023-05-20T16:13:01.579Z,21.44
2023-05-20T16:15:35.864Z,21.43
2023-05-20T16:18:03.807Z,21.40
2023-05-20T16:20:31.962Z,21.32
2023-05-20T16:22:59.610Z,21.27
2023-05-20T16:25:27.239Z,21.24
2023-05-20T16:27:54.913Z,21.17
2023-05-20T16:30:22.621Z,21.10
2023-05-20T16:32:50.264Z,21.03
2023-05-20T16:35:17.868Z,20.95
2023-05-20T16:37:45.735Z,20.93
2023-05-20T16:40:13.653Z,20.90
2023-05-20T16:42:42.520Z,20.82
2023-05-20T16:45:10.714Z,20.77
2023-05-20T16:47:38.663Z,20.73
2023-05-20T16:50:06.957Z,20.71
2023-05-20T16:52:35.272Z,20.66
2023-05-20T16:55:04.865Z,20.64
2023-05-20T16:57:33.649Z,20.59
2023-05-20T17:00:01.459Z,20.56
2023-05-20T17:02:33.043Z,20.48
2023-05-20T17:05:00.692Z,20.41
2023-05-20T17:07:28.254Z,20.37
2023-05-20T17:09:56.164Z,20.35
2023-05-20T17:12:23.810Z,20.32
2023-05-20T17:14:51.541Z,20.28
2023-05-20T17:17:19.151Z,20.23
2023-05-20T17:19:46.886Z,20.27
2023-05-20T17:22:14.558Z,20.18
2023-05-20T17:24:42.199Z,20.08
2023-05-20T17:27:10.104Z,19.98
2023-05-20T17:29:37.745Z,19.92
2023-05-20T17:32:05.931Z,19.85
2023-05-20T17:34:33.822Z,19.82
2023-05-20T17:37:01.514Z,19.74
2023-05-20T17:39:29.290Z,19.69
2023-05-20T17:41:56.936Z,19.65
2023-05-20T17:44:24.474Z,19.56
2023-05-20T17:46:52.165Z,19.51
2023-05-20T17:49:19.862Z,19.50
2023-05-20T17:51:47.414Z,19.46
2023-05-20T17:54:15.398Z,19.41
2023-05-20T17:56:44.840Z,19.36
2023-05-20T17:59:12.357Z,19.29
2023-05-20T18:01:40.060Z,19.23
2023-05-20T18:04:07.770Z,19.14
2023-05-20T18:06:36.527Z,19.11
2023-05-20T18:09:05.348Z,19.07
2023-05-20T18:11:35.464Z,19.04
2023-05-20T18:14:03.272Z,18.97
2023-05-20T18:16:31.290Z,18.92
2023-05-20T18:18:59.004Z,18.88
2023-05-20T18:21:26.788Z,18.85
2023-05-20T18:23:54.740Z,18.75
2023-05-20T18:26:22.991Z,18.79
2023-05-20T18:28:50.565Z,18.75
2023-05-20T18:31:18.355Z,18.72
2023-05-20T18:33:46.292Z,18.68
2023-05-20T18:36:13.891Z,18.69
2023-05-20T18:38:42.008Z,18.66
2023-05-20T18:41:09.989Z,18.59
2023-05-20T18:43:37.745Z,18.59
2023-05-20T18:46:05.736Z,18.58
2023-05-20T18:48:33.352Z,18.56
2023-05-20T18:51:01.183Z,18.52
2023-05-20T18:53:28.702Z,18.48
2023-05-20T18:55:57.467Z,18.43
2023-05-20T18:58:24.993Z,18.40
2023-05-20T19:00:52.742Z,18.35
2023-05-20T19:03:20.424Z,18.30
2023-05-20T19:05:48.055Z,18.25
2023-05-20T19:08:16.049Z,18.20
2023-05-20T19:10:43.857Z,18.11
2023-05-20T19:13:11.556Z,18.13
2023-05-20T19:15:39.192Z,18.09
2023-05-20T19:18:06.918Z,18.05
2023-05-20T19:20:35.124Z,18.01
2023-05-20T19:23:03.236Z,17.97
2023-05-20T19:25:30.840Z,17.93
2023-05-20T19:27:58.445Z,17.91
2023-05-20T19:30:26.162Z,17.87
2023-05-20T19:32:53.836Z,17.85
2023-05-20T19:35:21.669Z,17.79
2023-05-20T19:37:49.275Z,17.79
2023-05-20T19:40:16.895Z,17.78
2023-05-20T19:42:44.673Z,17.73
2023-05-20T19:45:12.452Z,17.71
2023-05-20T19:47:40.228Z,17.69
2023-05-20T19:50:08.800Z,17.69
2023-05-20T19:52:36.586Z,17.66
2023-05-20T19:55:04.496Z,17.66
2023-05-20T19:57:33.370Z,17.66
2023-05-20T20:00:00.995Z,17.60
2023-05-20T20:02:28.827Z,17.56
2023-05-20T20:04:56.456Z,17.55
2023-05-20T20:07:24.152Z,17.52
2023-05-20T20:09:55.489Z,17.51
2023-05-20T20:12:23.909Z,17.48
2023-05-20T20:14:52.506Z,17.45
2023-05-20T20:17:22.575Z,17.44
2023-05-20T20:19:53.520Z,17.47
2023-05-20T20:22:21.553Z,17.45
2023-05-20T20:24:50.295Z,17.42
2023-05-20T20:27:19.523Z,17.42
2023-05-20T20:29:47.218Z,17.34
2023-05-20T20:32:14.983Z,17.33
2023-05-20T20:34:43.367Z,17.32
2023-05-20T20:37:15.200Z,17.31
2023-05-20T20:39:45.595Z,17.12
2023-05-20T20:42:13.357Z,17.31
2023-05-20T20:44:43.118Z,17.26
2023-05-20T20:47:10.768Z,17.29
2023-05-20T20:49:38.283Z,17.25
2023-05-20T20:52:06.397Z,17.24
2023-05-20T20:54:34.492Z,17.20
2023-05-20T20:57:02.984Z,17.03
2023-05-20T20:59:30.580Z,17.10
2023-05-20T21:01:58.257Z,17.08
2023-05-20T21:04:28.079Z,17.02
2023-05-20T21:06:55.707Z,17.02
2023-05-20T21:09:23.786Z,16.99
2023-05-20T21:11:51.331Z,16.98
2023-05-20T21:14:18.906Z,16.92
2023-05-20T21:16:46.557Z,16.90
2023-05-20T21:19:14.436Z,16.87
2023-05-20T21:21:42.145Z,16.84
2023-05-20T21:24:09.834Z,16.77
2023-05-20T21:26:37.289Z,16.74
2023-05-20T21:29:06.269Z,16.72
2023-05-20T21:31:33.934Z,16.64
2023-05-20T21:34:01.582Z,16.64
2023-05-20T21:36:29.307Z,16.63
2023-05-20T21:38:57.115Z,16.56
2023-05-20T21:41:24.833Z,16.51
2023-05-20T21:43:52.379Z,16.45
2023-05-20T21:46:19.954Z,16.44
2023-05-20T21:48:47.567Z,16.45
2023-05-20T21:51:15.232Z,16.38
2023-05-20T21:53:42.858Z,16.37
2023-05-20T21:56:10.495Z,16.39
2023-05-20T21:58:41.396Z,16.36
2023-05-20T22:01:10.391Z,16.35
2023-05-20T22:03:40.152Z,16.30
2023-05-20T22:06:08.064Z,16.27
2023-05-20T22:08:35.643Z,16.20
2023-05-20T22:11:07.786Z,16.20
2023-05-20T22:13:36.477Z,16.20
2023-05-20T22:16:05.348Z,16.12
2023-05-20T22:18:33.107Z,16.08
2023-05-20T22:21:01.421Z,16.04
2023-05-20T22:23:29.254Z,16.00
2023-05-20T22:25:57.360Z,15.96
2023-05-20T22:28:26.516Z,15.92
2023-05-20T22:30:54.951Z,15.87
2023-05-20T22:33:23.187Z,15.84
2023-05-20T22:35:51.738Z,15.81
2023-05-20T22:38:19.578Z,15.76
2023-05-20T22:40:47.491Z,15.75
2023-05-20T22:43:16.776Z,15.70
2023-05-20T22:45:44.574Z,15.71
2023-05-20T22:48:12.755Z,15.67
2023-05-20T22:50:40.485Z,15.65
2023-05-20T22:53:08.069Z,15.64
2023-05-20T22:55:38.996Z,15.57
2023-05-20T22:58:08.251Z,15.52
2023-05-20T23:00:36.118Z,15.49
2023-05-20T23:03:03.746Z,15.48
2023-05-20T23:05:32.095Z,15.46
2023-05-20T23:08:00.110Z,15.46
2023-05-20T23:10:27.772Z,15.41
2023-05-20T23:12:55.362Z,15.38
2023-05-20T23:15:25.549Z,15.35
2023-05-20T23:17:53.531Z,15.39
2023-05-20T23:20:22.558Z,15.30
2023-05-20T23:22:50.330Z,15.30
2023-05-20T23:25:17.947Z,15.31
2023-05-20T23:27:45.868Z,15.23
2023-05-20T23:30:13.565Z,15.15
2023-05-20T23:32:41.689Z,15.16
2023-05-20T23:35:11.938Z,15.14
2023-05-20T23:37:41.257Z,15.11
2023-05-20T23:40:12.505Z,15.10
2023-05-20T23:42:40.685Z,15.03
2023-05-20T23:45:08.828Z,15.01
2023-05-20T23:47:38.079Z,15.00
2023-05-20T23:50:06.185Z,15.00
2023-05-20T23:52:34.519Z,14.95
2023-05-20T23:55:02.142Z,14.96
2023-05-20T23:57:32.558Z,14.92
